Time;durP1;ratioP1;P1;durP2;ratioP2;P2;SDS_P1;SDS_P2;PMS_P1;PMS_P2;Temp;Humidity;BMP_temperature;BMP_pressure;BME280_temperature;BME280_humidity;BME280_pressure;Samples;Min_cycle;Max_cycle;Signal;HPM_P1;HPM_P2
2022/01/17 00:01:47;;;;;;;;;;;;;;;20.05;41.13;102939.53;4956070;28;19923;-84
2022/01/17 00:04:12;;;;;;;;;;;;;;;20.05;41.24;102949.69;4951497;29;19922;-85
2022/01/17 00:06:38;;;;;;;;;;;;;;;20.05;41.06;102946.94;4954470;28;20073;-85
2022/01/17 00:09:03;;;;;;;;;;;;;;;20.04;41.21;102957.09;4937992;29;19923;-84
2022/01/17 00:11:28;;;;;;;;;;;;;;;20.04;41.01;102967.25;4954048;29;20264;-84
2022/01/17 00:13:55;;;;;;;;;;;;;;;20.04;41.11;102968.06;4970421;28;19918;-85
2022/01/17 00:16:28;;;;;;;;;;;;;;;20.04;40.98;102970.00;4937812;29;20339;-84
2022/01/17 00:19:17;;;;;;;;;;;;;;;20.04;41.21;102972.72;4955140;28;19989;-84
2022/01/17 00:21:41;;;;;;;;;;;;;;;20.03;41.27;102976.53;4953125;29;19923;-84
2022/01/17 00:24:08;;;;;;;;;;;;;;;20.02;41.36;102978.47;4953222;28;19981;-85
2022/01/17 00:26:33;;;;;;;;;;;;;;;20.02;40.99;102985.88;4938147;29;19962;-84
2022/01/17 00:28:59;;;;;;;;;;;;;;;20.01;40.90;102982.28;4955292;28;19980;-85
2022/01/17 00:31:24;;;;;;;;;;;;;;;20.01;41.30;102992.44;4936571;29;20415;-85
2022/01/17 00:33:49;;;;;;;;;;;;;;;20.01;41.45;102984.22;4950831;29;19941;-84
2022/01/17 00:36:15;;;;;;;;;;;;;;;19.99;41.19;102976.22;4951608;29;19925;-85
2022/01/17 00:38:40;;;;;;;;;;;;;;;19.99;41.13;102968.00;4944138;29;19925;-84
2022/01/17 00:41:05;;;;;;;;;;;;;;;19.99;41.20;102964.44;4936192;29;20393;-87
2022/01/17 00:43:30;;;;;;;;;;;;;;;19.98;40.99;102965.50;4969671;28;19965;-85
2022/01/17 00:45:58;;;;;;;;;;;;;;;19.99;41.14;102969.91;4952991;28;19980;-85
2022/01/17 00:48:23;;;;;;;;;;;;;;;19.97;41.08;102972.91;4966195;28;19915;-85
2022/01/17 00:50:50;;;;;;;;;;;;;;;19.97;41.01;102983.03;4941373;29;19925;-84
2022/01/17 00:53:15;;;;;;;;;;;;;;;19.96;41.13;102984.97;4968792;28;20017;-85
2022/01/17 00:55:40;;;;;;;;;;;;;;;19.97;41.08;102988.53;4955263;28;20009;-84
2022/01/17 00:58:08;;;;;;;;;;;;;;;19.95;41.01;102990.69;4936471;29;19974;-84
2022/01/17 01:00:36;;;;;;;;;;;;;;;19.95;41.12;103001.66;4953835;28;19921;-85
2022/01/17 01:03:01;;;;;;;;;;;;;;;19.95;40.92;102998.91;4951183;28;19919;-84
2022/01/17 01:05:27;;;;;;;;;;;;;;;19.94;41.06;102995.34;4954122;29;19915;-84
2022/01/17 01:07:54;;;;;;;;;;;;;;;19.94;41.01;102995.34;4952748;28;19918;-86
2022/01/17 01:10:21;;;;;;;;;;;;;;;19.93;41.06;102992.84;4954166;28;19918;-84
2022/01/17 01:12:48;;;;;;;;;;;;;;;19.92;40.89;102997.50;4953919;28;19914;-84
2022/01/17 01:15:19;;;;;;;;;;;;;;;19.92;41.10;103003.00;4957269;28;19957;-84
2022/01/17 01:17:50;;;;;;;;;;;;;;;19.92;41.11;103013.16;4954077;28;19918;-84
2022/01/17 01:20:30;;;;;;;;;;;;;;;19.92;40.91;103018.63;4953856;28;19990;-84
2022/01/17 01:28:23;;;;;;;;;;;;;;;19.89;41.02;102992.53;4952044;29;19929;-83
2022/01/17 01:30:52;;;;;;;;;;;;;;;19.88;41.03;102988.97;4969118;28;20267;-84
2022/01/17 01:33:28;;;;;;;;;;;;;;;19.88;41.04;102985.38;4953632;28;20303;-83
2022/01/17 01:36:02;;;;;;;;;;;;;;;19.87;40.87;102991.94;4952594;28;19918;-83
2022/01/17 01:38:28;;;;;;;;;;;;;;;19.86;40.79;102977.41;4952795;28;19929;-83
2022/01/17 01:40:53;;;;;;;;;;;;;;;19.85;40.75;102986.69;4954454;28;19918;-84
2022/01/17 01:43:18;;;;;;;;;;;;;;;19.85;40.84;102978.47;4952806;28;19991;-83
2022/01/17 01:45:48;;;;;;;;;;;;;;;19.84;40.81;102979.56;4958685;28;19969;-84
2022/01/17 01:48:13;;;;;;;;;;;;;;;19.84;40.76;102993.28;4951923;28;19925;-83
2022/01/17 01:50:38;;;;;;;;;;;;;;;19.83;40.80;102997.13;4952336;28;20001;-83
2022/01/17 01:53:04;;;;;;;;;;;;;;;19.82;40.96;102992.69;4952796;29;20260;-84
2022/01/17 01:55:30;;;;;;;;;;;;;;;19.82;40.90;103000.91;4952535;29;19954;-83
2022/01/17 01:57:56;;;;;;;;;;;;;;;19.82;40.88;103002.84;4952317;28;19964;-83
2022/01/17 02:00:21;;;;;;;;;;;;;;;19.81;40.96;103012.16;4950867;29;20367;-84
2022/01/17 02:02:47;;;;;;;;;;;;;;;19.80;40.90;103011.31;4952801;28;19929;-84
2022/01/17 02:05:12;;;;;;;;;;;;;;;19.80;40.70;103007.75;4938889;29;19927;-83
2022/01/17 02:07:39;;;;;;;;;;;;;;;19.79;40.77;103003.34;4954753;29;20385;-84
2022/01/17 02:10:05;;;;;;;;;;;;;;;19.79;40.83;103008.84;4958017;28;20017;-88
2022/01/17 02:12:32;;;;;;;;;;;;;;;19.78;40.81;103008.00;4952931;28;19925;-85
2022/01/17 02:14:57;;;;;;;;;;;;;;;19.78;40.71;103009.91;4952010;29;19918;-85
2022/01/17 02:17:24;;;;;;;;;;;;;;;19.77;40.78;103006.31;4956178;29;19970;-85
2022/01/17 02:19:53;;;;;;;;;;;;;;;19.77;40.82;103013.72;4956131;28;19914;-86
2022/01/17 02:22:19;;;;;;;;;;;;;;;19.76;40.98;103010.16;4939216;29;19941;-85
2022/01/17 02:24:44;;;;;;;;;;;;;;;19.77;40.79;103010.97;4955913;29;19926;-84
2022/01/17 02:27:09;;;;;;;;;;;;;;;19.76;41.03;103004.69;4955836;28;20453;-84
2022/01/17 02:29:35;;;;;;;;;;;;;;;19.75;40.80;103007.66;4956177;29;20391;-84
2022/01/17 02:32:00;;;;;;;;;;;;;;;19.75;40.96;103002.16;4955045;29;19922;-85
2022/01/17 02:34:25;;;;;;;;;;;;;;;19.74;40.79;102995.88;4953778;28;19990;-84
2022/01/17 02:36:50;;;;;;;;;;;;;;;19.74;40.77;102997.78;4955833;28;20010;-84
2022/01/17 02:39:16;;;;;;;;;;;;;;;19.73;40.81;102993.34;4939858;29;19919;-84
2022/01/17 02:41:44;;;;;;;;;;;;;;;19.72;40.91;102999.94;4971852;28;19942;-84
2022/01/17 02:44:10;;;;;;;;;;;;;;;19.70;40.80;103002.91;4956065;28;20464;-84
2022/01/17 02:46:35;;;;;;;;;;;;;;;19.71;40.88;103001.84;4955266;28;19925;-84
2022/01/17 02:49:01;;;;;;;;;;;;;;;19.70;40.86;102991.94;4955557;28;19918;-84
2022/01/17 02:51:28;;;;;;;;;;;;;;;19.70;40.67;102993.88;4954719;28;20322;-84
2022/01/17 02:53:54;;;;;;;;;;;;;;;19.68;40.82;102999.63;4955933;28;20360;-84
2022/01/17 02:56:20;;;;;;;;;;;;;;;19.68;40.69;103002.34;4956967;28;19926;-84
2022/01/17 02:58:46;;;;;;;;;;;;;;;19.68;40.95;103007.84;4955170;28;19954;-84
2022/01/17 03:01:16;;;;;;;;;;;;;;;19.66;40.76;103008.03;4955538;28;19918;-84
2022/01/17 03:03:42;;;;;;;;;;;;;;;19.66;40.74;102999.81;4954535;29;20051;-83
2022/01/17 03:06:08;;;;;;;;;;;;;;;19.66;40.85;103007.22;4971260;28;19914;-84
2022/01/17 03:08:33;;;;;;;;;;;;;;;19.65;40.84;103005.53;4954706;28;19915;-84
2022/01/17 03:11:00;;;;;;;;;;;;;;;19.65;40.65;103000.06;4955131;28;20359;-84
2022/01/17 03:13:31;;;;;;;;;;;;;;;19.64;40.82;103001.97;4960855;28;19918;-85
2022/01/17 03:15:58;;;;;;;;;;;;;;;19.63;40.90;103003.06;4944103;29;20349;-84
2022/01/17 03:18:24;;;;;;;;;;;;;;;19.63;40.60;103005.81;4961151;28;19918;-85
2022/01/17 03:20:50;;;;;;;;;;;;;;;19.63;40.98;103005.81;4955907;28;19919;-84
2022/01/17 03:23:15;;;;;;;;;;;;;;;19.63;40.75;102999.47;4971146;28;19921;-86
2022/01/17 03:25:40;;;;;;;;;;;;;;;19.62;40.66;103000.56;4954655;29;19960;-84
2022/01/17 03:28:06;;;;;;;;;;;;;;;19.61;40.93;102994.25;4953695;29;19945;-84
2022/01/17 03:30:33;;;;;;;;;;;;;;;19.61;40.83;102990.69;4970415;28;20274;-84
2022/01/17 03:32:59;;;;;;;;;;;;;;;19.60;40.81;102986.28;4955543;28;19922;-83
2022/01/17 03:35:25;;;;;;;;;;;;;;;19.59;40.74;102985.44;4956118;28;19919;-85
2022/01/17 03:37:50;;;;;;;;;;;;;;;19.58;40.79;102994.75;4954463;28;20279;-83
2022/01/17 03:40:15;;;;;;;;;;;;;;;19.59;40.71;102990.09;4969564;28;20392;-84
2022/01/17 03:42:41;;;;;;;;;;;;;;;19.57;40.74;103006.78;4953199;29;19946;-83
2022/01/17 03:45:07;;;;;;;;;;;;;;;19.58;40.71;103010.34;4954915;28;19927;-84
2022/01/17 03:47:43;;;;;;;;;;;;;;;19.56;40.73;103005.13;4955300;28;19923;-84
2022/01/17 03:50:10;;;;;;;;;;;;;;;19.56;40.64;103007.88;4946332;29;19998;-84
2022/01/17 03:52:36;;;;;;;;;;;;;;;19.55;40.58;103008.94;4953896;28;20363;-84
2022/01/17 03:55:01;;;;;;;;;;;;;;;19.55;40.70;103002.63;4954740;28;19957;-83
2022/01/17 03:57:26;;;;;;;;;;;;;;;19.54;40.78;102995.50;4954366;29;20252;-83
2022/01/17 03:59:52;;;;;;;;;;;;;;;19.53;40.87;103000.16;4954046;28;20310;-84
2022/01/17 04:02:17;;;;;;;;;;;;;;;19.53;40.82;103005.63;4954709;29;19969;-84
2022/01/17 04:04:42;;;;;;;;;;;;;;;19.53;40.59;103008.38;4938091;29;20374;-84
2022/01/17 04:07:07;;;;;;;;;;;;;;;19.52;40.75;103014.09;4954826;29;19972;-84
2022/01/17 04:09:33;;;;;;;;;;;;;;;19.51;40.70;103005.06;4969412;28;19926;-83
2022/01/17 04:11:58;;;;;;;;;;;;;;;19.51;40.37;103002.31;4954591;28;19933;-83
2022/01/17 04:14:23;;;;;;;;;;;;;;;19.51;40.70;103004.22;4955897;28;19925;-83
2022/01/17 04:16:49;;;;;;;;;;;;;;;19.50;40.67;103011.59;4953308;29;19922;-84
2022/01/17 04:19:16;;;;;;;;;;;;;;;19.49;40.52;103007.19;4968254;28;19918;-84
2022/01/17 04:21:41;;;;;;;;;;;;;;;19.49;40.67;103009.94;4937221;29;19918;-84
2022/01/17 04:24:06;;;;;;;;;;;;;;;19.48;40.77;103008.28;4966632;28;19974;-84
2022/01/17 04:26:32;;;;;;;;;;;;;;;19.48;40.57;103021.16;4953375;28;19922;-84
2022/01/17 04:28:57;;;;;;;;;;;;;;;19.48;40.67;103029.38;4953712;28;19960;-84
2022/01/17 04:31:22;;;;;;;;;;;;;;;19.46;40.75;103024.16;4949806;29;19922;-83
2022/01/17 04:33:48;;;;;;;;;;;;;;;19.46;40.40;103024.97;4947061;29;20383;-84
2022/01/17 04:36:13;;;;;;;;;;;;;;;19.45;40.45;103022.47;4969374;28;20339;-84
2022/01/17 04:38:38;;;;;;;;;;;;;;;19.44;40.66;103021.66;4953300;28;20377;-84
2022/01/17 04:41:12;;;;;;;;;;;;;;;19.44;40.68;103020.81;4936690;29;20299;-83
2022/01/17 04:46:03;;;;;;;;;;;;;;;19.42;40.67;103029.28;4954960;28;20006;-83
2022/01/17 04:48:29;;;;;;;;;;;;;;;19.42;40.77;103034.75;4950201;29;19953;-83
2022/01/17 04:50:54;;;;;;;;;;;;;;;19.42;40.46;103029.28;4953199;28;19969;-83
2022/01/17 04:53:21;;;;;;;;;;;;;;;19.42;40.55;103025.72;4969758;28;19914;-84
2022/01/17 04:55:47;;;;;;;;;;;;;;;19.41;40.61;103033.09;4953224;29;19930;-83
2022/01/17 04:58:12;;;;;;;;;;;;;;;19.39;40.50;103032.50;4950204;29;19927;-86
2022/01/17 05:00:45;;;;;;;;;;;;;;;19.40;40.51;103027.84;4939722;29;19919;-84
2022/01/17 05:03:11;;;;;;;;;;;;;;;19.39;40.43;103027.03;4934651;29;19922;-84
2022/01/17 05:05:36;;;;;;;;;;;;;;;19.39;40.70;103021.56;4953364;28;20363;-85
2022/01/17 05:08:01;;;;;;;;;;;;;;;19.38;40.44;103011.69;4968631;28;19930;-83
2022/01/17 05:10:27;;;;;;;;;;;;;;;19.38;40.51;103017.16;4937218;29;19968;-83
2022/01/17 05:12:53;;;;;;;;;;;;;;;19.37;40.54;103022.88;4953157;28;20012;-83
2022/01/17 05:15:35;;;;;;;;;;;;;;;19.36;40.66;103033.00;4936059;29;19934;-83
2022/01/17 05:20:26;;;;;;;;;;;;;;;19.35;40.67;103031.38;4954564;28;19918;-83
2022/01/17 05:22:52;;;;;;;;;;;;;;;19.35;40.71;103041.47;4952827;28;20361;-83
2022/01/17 05:25:18;;;;;;;;;;;;;;;19.35;40.70;103049.69;4951340;28;19919;-84
2022/01/17 05:27:43;;;;;;;;;;;;;;;19.34;40.57;103068.06;4949257;28;19914;-87
2022/01/17 05:30:13;;;;;;;;;;;;;;;19.33;40.45;103068.31;4939125;29;19923;-85
2022/01/17 05:32:39;;;;;;;;;;;;;;;19.32;40.63;103055.69;4954763;28;19965;-85
2022/01/17 05:35:05;;;;;;;;;;;;;;;19.32;40.69;103058.41;4944807;29;19996;-84
2022/01/17 05:37:30;;;;;;;;;;;;;;;19.32;40.66;103056.50;4951786;28;19931;-85
2022/01/17 05:39:55;;;;;;;;;;;;;;;19.31;40.72;103063.06;4938429;29;20351;-84
2022/01/17 05:42:21;;;;;;;;;;;;;;;19.31;40.68;103064.97;4957039;29;19918;-84
2022/01/17 05:44:48;;;;;;;;;;;;;;;19.30;40.55;103060.56;4945484;29;19923;-84
2022/01/17 05:47:14;;;;;;;;;;;;;;;19.30;40.50;103069.59;4957243;28;20013;-85
2022/01/17 05:49:41;;;;;;;;;;;;;;;19.29;40.76;103057.00;4941499;29;19919;-85
2022/01/17 05:52:07;;;;;;;;;;;;;;;19.30;40.63;103063.31;4958155;28;20418;-84
2022/01/17 05:54:32;;;;;;;;;;;;;;;19.28;40.54;103047.13;4966875;28;19919;-84
2022/01/17 05:56:58;;;;;;;;;;;;;;;19.28;40.51;103044.38;4968478;28;19949;-84
2022/01/17 05:59:23;;;;;;;;;;;;;;;19.27;40.59;103045.44;4956498;29;20281;-83
2022/01/17 06:01:48;;;;;;;;;;;;;;;19.27;40.65;103055.56;4956521;28;19923;-84
2022/01/17 06:04:13;;;;;;;;;;;;;;;19.26;40.62;103071.19;4954487;29;19923;-84
2022/01/17 06:06:39;;;;;;;;;;;;;;;19.26;40.54;103079.41;4957070;29;20286;-84
2022/01/17 06:09:04;;;;;;;;;;;;;;;19.26;40.49;103070.38;4954697;28;19928;-84
2022/01/17 06:11:30;;;;;;;;;;;;;;;19.24;40.62;103060.47;4972166;28;20001;-84
2022/01/17 06:13:56;;;;;;;;;;;;;;;19.23;40.51;103072.50;4956087;29;19925;-84
2022/01/17 06:16:21;;;;;;;;;;;;;;;19.23;40.51;103078.00;4956776;28;19965;-84
2022/01/17 06:18:46;;;;;;;;;;;;;;;19.23;40.53;103090.88;4955930;29;19918;-84
2022/01/17 06:21:11;;;;;;;;;;;;;;;19.24;40.62;103092.53;4955609;28;20425;-84
2022/01/17 06:23:37;;;;;;;;;;;;;;;19.22;40.51;103083.69;4955647;29;19923;-87
2022/01/17 06:26:02;;;;;;;;;;;;;;;19.21;40.58;103084.78;4939605;29;19918;-84
2022/01/17 06:28:27;;;;;;;;;;;;;;;19.21;40.47;103101.22;4962863;28;19919;-85
2022/01/17 06:30:53;;;;;;;;;;;;;;;19.20;40.45;103118.72;4939975;29;19925;-86
2022/01/17 06:33:20;;;;;;;;;;;;;;;19.19;40.60;103104.19;4971230;28;19922;-83
2022/01/17 06:35:45;;;;;;;;;;;;;;;19.20;40.58;103099.56;4956545;28;19918;-81
2022/01/17 06:38:11;;;;;;;;;;;;;;;19.20;40.79;103091.34;4952845;29;19946;-81
2022/01/17 06:40:36;;;;;;;;;;;;;;;19.20;40.88;103099.56;4960609;28;19926;-82
2022/01/17 06:43:01;;;;;;;;;;;;;;;19.19;40.99;103106.94;4955893;28;19957;-81
2022/01/17 06:45:26;;;;;;;;;;;;;;;19.19;40.99;103117.06;4955873;29;19918;-81
2022/01/17 06:47:52;;;;;;;;;;;;;;;19.19;41.02;103109.69;4954461;29;20315;-81
2022/01/17 06:50:17;;;;;;;;;;;;;;;19.19;41.13;103092.41;4953392;28;19969;-81
2022/01/17 06:52:44;;;;;;;;;;;;;;;19.19;41.22;103095.16;4955784;28;19936;-81
2022/01/17 06:55:10;;;;;;;;;;;;;;;19.19;41.22;103100.63;4954420;28;20349;-82
2022/01/17 06:57:35;;;;;;;;;;;;;;;19.19;41.27;103122.56;4956606;28;20015;-81
2022/01/17 07:00:01;;;;;;;;;;;;;;;19.20;41.32;103132.44;4956651;29;19930;-82
2022/01/17 07:02:27;;;;;;;;;;;;;;;19.18;41.26;103131.88;4956910;28;19945;-81
2022/01/17 07:04:52;;;;;;;;;;;;;;;19.18;41.16;103140.91;4938007;29;19918;-81
2022/01/17 07:07:19;;;;;;;;;;;;;;;19.17;41.19;103149.34;4955775;29;19938;-81
2022/01/17 07:09:44;;;;;;;;;;;;;;;19.18;41.22;103167.47;4952858;29;19919;-81
2022/01/17 07:12:10;;;;;;;;;;;;;;;19.17;41.26;103150.19;4953684;29;19934;-80
2022/01/17 07:14:41;;;;;;;;;;;;;;;19.18;41.16;103131.88;4954287;29;20013;-85
2022/01/17 07:17:08;;;;;;;;;;;;;;;19.17;41.26;103135.66;4953550;29;20293;-84
2022/01/17 07:19:33;;;;;;;;;;;;;;;19.16;41.39;103125.78;4956054;28;19922;-82
2022/01/17 07:21:58;;;;;;;;;;;;;;;19.17;41.46;103113.75;4938944;29;20285;-80
2022/01/17 07:24:23;;;;;;;;;;;;;;;19.17;41.39;103105.53;4955994;28;19930;-82
2022/01/17 07:26:48;;;;;;;;;;;;;;;19.16;41.41;103093.75;4953379;29;20394;-81
2022/01/17 07:29:14;;;;;;;;;;;;;;;19.16;41.47;103085.53;4954153;28;20005;-81
2022/01/17 07:31:39;;;;;;;;;;;;;;;19.16;41.49;103101.13;4920525;29;20398;-81
2022/01/17 07:34:05;;;;;;;;;;;;;;;19.16;41.74;103109.34;4952962;29;19922;-83
2022/01/17 07:36:30;;;;;;;;;;;;;;;19.16;41.73;103109.34;4955379;28;19929;-81
2022/01/17 07:38:56;;;;;;;;;;;;;;;19.16;41.70;103101.13;4955763;28;19957;-83
2022/01/17 07:41:21;;;;;;;;;;;;;;;19.16;42.00;103106.63;4955231;29;19930;-83
2022/01/17 07:43:48;;;;;;;;;;;;;;;19.17;41.77;103116.47;4955513;28;19965;-83
2022/01/17 07:49:11;;;;;;;;;;;;;;;19.16;42.12;103137.56;4962960;28;19923;-82
2022/01/17 07:51:37;;;;;;;;;;;;;;;19.15;42.02;103141.41;4969380;28;19918;-81
2022/01/17 07:54:03;;;;;;;;;;;;;;;19.16;42.07;103142.22;4955378;28;20295;-84
2022/01/17 07:56:29;;;;;;;;;;;;;;;19.16;42.16;103143.06;4968251;28;19922;-83
2022/01/17 07:58:55;;;;;;;;;;;;;;;19.15;41.93;103151.50;4952635;28;19926;-84
2022/01/17 08:01:23;;;;;;;;;;;;;;;19.16;42.32;103162.22;4934884;28;19929;-93
2022/01/17 08:03:48;;;;;;;;;;;;;;;19.16;42.32;103172.38;4953445;28;19977;-86
2022/01/17 08:06:13;;;;;;;;;;;;;;;19.17;42.21;103184.97;4966834;28;20297;-85
2022/01/17 08:08:38;;;;;;;;;;;;;;;19.17;42.28;103184.97;4950030;28;20016;-84
2022/01/17 08:11:04;;;;;;;;;;;;;;;19.17;42.22;103191.28;4951768;28;20409;-86
2022/01/17 08:13:29;;;;;;;;;;;;;;;19.19;42.34;103199.28;4950450;29;19930;-83
2022/01/17 08:15:55;;;;;;;;;;;;;;;19.19;42.47;103197.34;4949753;28;19926;-82
2022/01/17 08:18:21;;;;;;;;;;;;;;;19.21;42.30;103195.22;4964359;28;19929;-84
2022/01/17 08:20:46;;;;;;;;;;;;;;;19.22;42.37;103183.16;4948729;28;19922;-83
2022/01/17 08:23:12;;;;;;;;;;;;;;;19.24;42.28;103175.56;4965286;28;19930;-84
2022/01/17 08:25:38;;;;;;;;;;;;;;;19.26;42.30;103183.53;4950912;28;19925;-80
2022/01/17 08:28:03;;;;;;;;;;;;;;;19.28;42.34;103184.13;4948620;28;20282;-83
2022/01/17 08:30:30;;;;;;;;;;;;;;;19.30;42.39;103186.63;4965485;28;19985;-87
2022/01/17 08:32:55;;;;;;;;;;;;;;;19.33;42.26;103188.91;4949034;28;19925;-89
2022/01/17 08:35:21;;;;;;;;;;;;;;;19.33;42.43;103189.72;4933312;29;19946;-89
2022/01/17 08:37:46;;;;;;;;;;;;;;;19.36;42.45;103199.38;4950879;28;19926;-85
2022/01/17 08:40:23;;;;;;;;;;;;;;;19.38;42.30;103197.22;4949740;28;19945;-87
2022/01/17 08:42:49;;;;;;;;;;;;;;;19.40;42.34;103195.03;4948862;28;20384;-83
2022/01/17 08:45:15;;;;;;;;;;;;;;;19.43;42.26;103183.63;4947813;29;19965;-84
2022/01/17 08:47:40;;;;;;;;;;;;;;;19.46;42.29;103185.88;4949855;28;19966;-85
2022/01/17 08:50:07;;;;;;;;;;;;;;;19.48;42.55;103183.72;4948689;29;20041;-83
2022/01/17 08:52:32;;;;;;;;;;;;;;;19.50;42.34;103187.03;4950605;28;20389;-83
2022/01/17 08:54:58;;;;;;;;;;;;;;;19.51;42.43;103188.72;4964701;28;19934;-83
2022/01/17 08:57:23;;;;;;;;;;;;;;;19.55;42.33;103187.13;4949480;29;19925;-80
2022/01/17 08:59:49;;;;;;;;;;;;;;;19.57;42.39;103189.63;4944648;28;20371;-80
2022/01/17 09:02:15;;;;;;;;;;;;;;;19.58;42.12;103172.97;4950130;28;20013;-80
2022/01/17 09:04:43;;;;;;;;;;;;;;;19.61;42.41;103182.59;4949612;28;20706;-83
2022/01/17 09:07:09;;;;;;;;;;;;;;;19.62;42.39;103189.75;4951609;28;19962;-81
2022/01/17 09:09:35;;;;;;;;;;;;;;;19.64;42.08;103182.09;4963229;28;19968;-81
2022/01/17 09:12:01;;;;;;;;;;;;;;;19.66;42.25;103177.22;4945699;29;19918;-82
2022/01/17 09:14:27;;;;;;;;;;;;;;;19.66;42.15;103180.78;4965306;28;19946;-85
2022/01/17 09:16:53;;;;;;;;;;;;;;;19.69;42.13;103195.94;4949486;28;19974;-84
2022/01/17 09:19:18;;;;;;;;;;;;;;;19.71;42.07;103221.22;4948346;29;19976;-79
2022/01/17 09:21:43;;;;;;;;;;;;;;;19.73;42.23;103231.94;4965414;28;20013;-79
2022/01/17 09:24:08;;;;;;;;;;;;;;;19.74;42.32;103234.44;4952103;28;20005;-79
2022/01/17 09:26:34;;;;;;;;;;;;;;;19.75;42.10;103236.09;4950200;28;20017;-81
2022/01/17 09:28:59;;;;;;;;;;;;;;;19.76;42.04;103248.75;4946976;29;20392;-82
2022/01/17 09:31:24;;;;;;;;;;;;;;;19.78;42.07;103253.97;4950752;28;20371;-82
2022/01/17 09:33:50;;;;;;;;;;;;;;;19.79;41.73;103250.16;4933252;29;20248;-82
2022/01/17 09:36:15;;;;;;;;;;;;;;;19.80;42.09;103247.16;4942847;29;19934;-81
2022/01/17 09:38:41;;;;;;;;;;;;;;;19.83;42.07;103249.44;4949529;28;19929;-80
2022/01/17 09:41:06;;;;;;;;;;;;;;;19.85;41.95;103241.78;4947953;29;20331;-79
2022/01/17 09:43:32;;;;;;;;;;;;;;;19.89;41.96;103242.13;4950937;28;20360;-78
2022/01/17 09:45:57;;;;;;;;;;;;;;;19.92;41.93;103249.03;4949268;28;19961;-83
2022/01/17 09:48:33;;;;;;;;;;;;;;;19.95;41.97;103249.38;4946411;28;19988;-78
2022/01/17 09:51:08;;;;;;;;;;;;;;;19.98;42.26;103256.28;4949622;28;20370;-79
2022/01/17 09:53:39;;;;;;;;;;;;;;;20.01;42.06;103255.81;4949478;28;20371;-83
2022/01/17 09:56:06;;;;;;;;;;;;;;;20.03;42.26;103259.97;4948685;28;19933;-81
2022/01/17 09:58:34;;;;;;;;;;;;;;;20.05;42.02;103271.50;4964098;28;19978;-80
2022/01/17 10:01:00;;;;;;;;;;;;;;;20.08;42.24;103278.41;4957448;28;19945;-80
2022/01/17 10:03:26;;;;;;;;;;;;;;;20.10;42.19;103285.31;4932781;29;20108;-79
2022/01/17 10:05:51;;;;;;;;;;;;;;;20.13;42.22;103280.44;4948263;28;19933;-80
2022/01/17 10:08:17;;;;;;;;;;;;;;;20.14;42.07;103266.47;4944141;29;20028;-79
2022/01/17 10:10:50;;;;;;;;;;;;;;;20.18;42.34;103288.75;4963660;28;19927;-79
2022/01/17 10:13:20;;;;;;;;;;;;;;;20.20;42.07;103276.47;4941040;29;20046;-81
2022/01/17 10:15:58;;;;;;;;;;;;;;;20.23;42.21;103269.66;4950153;28;19918;-79
2022/01/17 10:18:37;;;;;;;;;;;;;;;20.25;42.13;103284.78;4963703;28;20379;-82
2022/01/17 10:21:11;;;;;;;;;;;;;;;20.27;42.06;103285.38;4964454;28;20367;-79
2022/01/17 10:26:13;;;;;;;;;;;;;;;20.31;42.15;103281.06;4951574;28;19918;-82
2022/01/17 10:29:12;;;;;;;;;;;;;;;20.34;42.26;103290.72;4966801;28;19968;-80
2022/01/17 10:36:56;;;;;;;;;;;;;;;20.41;42.10;103293.28;4952336;29;19950;-82
2022/01/17 10:39:22;;;;;;;;;;;;;;;20.42;42.25;103304.03;4957469;28;20258;-84
2022/01/17 10:41:47;;;;;;;;;;;;;;;20.43;42.28;103294.72;4951815;29;19923;-87
2022/01/17 10:44:31;;;;;;;;;;;;;;;20.46;42.11;103290.63;4950080;29;20382;-81
2022/01/17 10:47:15;;;;;;;;;;;;;;;20.47;42.25;103287.66;4953225;29;19925;-82
2022/01/17 10:49:48;;;;;;;;;;;;;;;20.49;42.23;103285.50;4950422;28;20355;-82
2022/01/17 10:52:26;;;;;;;;;;;;;;;20.51;42.23;103296.22;4952830;28;19923;-79
2022/01/17 10:54:54;;;;;;;;;;;;;;;20.53;42.32;103283.09;4963459;28;20330;-81
2022/01/17 10:57:20;;;;;;;;;;;;;;;20.55;42.24;103310.34;4951355;28;19933;-79
2022/01/17 10:59:45;;;;;;;;;;;;;;;20.57;42.38;103313.69;4949891;29;19926;-81
2022/01/17 11:02:10;;;;;;;;;;;;;;;20.59;42.32;103311.47;4965829;28;19926;-79
2022/01/17 11:04:36;;;;;;;;;;;;;;;20.60;42.30;103330.47;4951837;28;19930;-80
2022/01/17 11:07:05;;;;;;;;;;;;;;;20.61;42.11;103318.41;4950996;28;19927;-80
2022/01/17 11:09:41;;;;;;;;;;;;;;;20.62;42.18;103325.56;4949556;28;20402;-82
2022/01/17 11:12:11;;;;;;;;;;;;;;;20.64;42.30;103339.91;4950972;28;19930;-86
2022/01/17 11:14:37;;;;;;;;;;;;;;;20.66;42.06;103335.00;4952781;28;19918;-82
2022/01/17 11:17:15;;;;;;;;;;;;;;;20.67;42.16;103331.16;4966902;28;20010;-84
2022/01/17 11:22:25;;;;;;;;;;;;;;;20.72;42.17;103330.41;4951446;29;20017;-82
2022/01/17 11:24:51;;;;;;;;;;;;;;;20.73;42.11;103338.38;4966070;28;20036;-81
2022/01/17 11:27:16;;;;;;;;;;;;;;;20.75;42.01;103336.22;4951408;28;19930;-83
2022/01/17 11:29:41;;;;;;;;;;;;;;;20.78;42.00;103323.09;4949882;28;19929;-82
2022/01/17 11:32:07;;;;;;;;;;;;;;;20.81;41.91;103315.16;4948770;28;20259;-81
2022/01/17 11:34:32;;;;;;;;;;;;;;;20.85;42.00;103307.28;4960356;28;20050;-84
2022/01/17 11:36:58;;;;;;;;;;;;;;;20.88;41.76;103295.78;4949032;28;19934;-82
2022/01/17 11:39:23;;;;;;;;;;;;;;;20.91;42.03;103300.75;4950091;28;19969;-83
2022/01/17 11:41:49;;;;;;;;;;;;;;;20.91;41.89;103304.34;4951027;28;20016;-84
2022/01/17 11:44:14;;;;;;;;;;;;;;;20.93;42.04;103306.84;4968248;28;19924;-84
2022/01/17 11:46:50;;;;;;;;;;;;;;;20.95;41.77;103322.00;4951756;28;19938;-83
2022/01/17 11:49:24;;;;;;;;;;;;;;;20.96;41.92;103320.94;4952443;28;19985;-83
2022/01/17 11:51:50;;;;;;;;;;;;;;;20.99;41.97;103329.75;4950786;28;19926;-82
2022/01/17 11:54:26;;;;;;;;;;;;;;;21.00;42.15;103331.41;4935247;29;19940;-82
2022/01/17 11:56:54;;;;;;;;;;;;;;;21.01;41.92;103336.66;4951596;28;19922;-81
2022/01/17 11:59:34;;;;;;;;;;;;;;;21.02;41.81;103337.50;4966504;28;19927;-82
2022/01/17 12:02:20;;;;;;;;;;;;;;;21.04;41.89;103338.06;4950404;28;19926;-83
2022/01/17 12:05:10;;;;;;;;;;;;;;;21.04;41.92;103343.56;4949497;28;20411;-85
2022/01/17 12:07:42;;;;;;;;;;;;;;;21.05;41.93;103340.56;4967288;28;19919;-83
2022/01/17 12:10:08;;;;;;;;;;;;;;;21.06;41.72;103333.16;4951146;28;19919;-88
2022/01/17 12:12:33;;;;;;;;;;;;;;;21.06;41.86;103333.16;4950666;28;20290;-80
2022/01/17 12:15:05;;;;;;;;;;;;;;;21.06;42.01;103328.47;4951392;28;19930;-80
2022/01/17 12:17:31;;;;;;;;;;;;;;;21.07;41.71;103321.09;4950445;28;20005;-80
2022/01/17 12:20:14;;;;;;;;;;;;;;;21.04;41.70;103308.69;4964843;28;19931;-82
2022/01/17 12:22:39;;;;;;;;;;;;;;;21.03;41.62;103296.00;4964362;28;20268;-80
2022/01/17 12:25:31;;;;;;;;;;;;;;;21.01;41.43;103289.09;4947233;28;19922;-79
2022/01/17 12:28:03;;;;;;;;;;;;;;;21.00;41.51;103306.69;4949983;29;19918;-80
2022/01/17 12:30:49;;;;;;;;;;;;;;;20.97;41.67;103327.25;4950058;29;20659;-80
2022/01/17 12:33:27;;;;;;;;;;;;;;;20.96;41.57;103347.56;4950697;28;19923;-80
2022/01/17 12:35:52;;;;;;;;;;;;;;;20.93;41.60;103345.31;4949186;29;20310;-80
2022/01/17 12:38:40;;;;;;;;;;;;;;;20.92;41.50;103357.41;4965187;28;19922;-80
2022/01/17 12:41:06;;;;;;;;;;;;;;;20.90;41.31;103352.16;4948131;29;20405;-80
2022/01/17 12:43:35;;;;;;;;;;;;;;;20.88;41.57;103351.56;4950209;28;19958;-79
2022/01/17 12:46:00;;;;;;;;;;;;;;;20.88;41.56;103359.78;4946590;29;19933;-89
2022/01/17 12:48:27;;;;;;;;;;;;;;;20.87;41.56;103352.66;4966652;28;19926;-91
2022/01/17 12:50:53;;;;;;;;;;;;;;;20.86;41.53;103326.25;4966376;28;20327;-87
2022/01/17 12:53:19;;;;;;;;;;;;;;;20.86;41.57;103314.41;4933021;29;20336;-85
2022/01/17 12:55:49;;;;;;;;;;;;;;;20.85;41.27;103308.09;4948742;29;19926;-86
2022/01/17 12:58:19;;;;;;;;;;;;;;;20.85;41.51;103318.25;4951276;28;19926;-85
2022/01/17 13:00:55;;;;;;;;;;;;;;;20.86;41.39;103314.41;4948847;29;19923;-86